createdAt,value
2023-03-22T00:02:04.285Z,17.09
2023-03-22T00:04:31.284Z,17.09
2023-03-22T00:06:57.855Z,17.08
2023-03-22T00:09:24.387Z,17.08
2023-03-22T00:11:51.131Z,17.08
2023-03-22T00:14:18.685Z,17.07
2023-03-22T00:16:46.333Z,17.07
2023-03-22T00:19:12.986Z,17.07
2023-03-22T00:21:39.540Z,17.07
2023-03-22T00:24:06.546Z,17.07
2023-03-22T00:26:33.340Z,17.07
2023-03-22T00:29:00.742Z,17.06
2023-03-22T00:31:27.363Z,17.06
2023-03-22T00:33:53.951Z,17.05
2023-03-22T00:36:20.445Z,17.05
2023-03-22T00:38:46.950Z,17.04
2023-03-22T00:41:19.358Z,17.03
2023-03-22T00:43:47.518Z,17.03
2023-03-22T00:46:16.167Z,17.03
2023-03-22T00:48:42.872Z,17.02
2023-03-22T00:51:09.829Z,17.02
2023-03-22T00:53:36.964Z,17.01
2023-03-22T00:56:05.580Z,17.01
2023-03-22T00:58:32.571Z,17.01
2023-03-22T01:00:59.243Z,17.02
2023-03-22T01:03:25.938Z,17.02
2023-03-22T01:05:56.756Z,17.01
2023-03-22T01:08:23.959Z,17.01
2023-03-22T01:10:50.888Z,17.02
2023-03-22T01:13:18.119Z,17.02
2023-03-22T01:15:45.075Z,17.03
2023-03-22T01:18:11.763Z,17.02
2023-03-22T01:20:38.686Z,17.03
2023-03-22T01:23:06.201Z,17.02
2023-03-22T01:25:32.760Z,17.03
2023-03-22T01:27:59.346Z,17.02
2023-03-22T01:30:26.020Z,17.03
2023-03-22T01:32:52.636Z,17.02
2023-03-22T01:35:19.191Z,17.03
2023-03-22T01:37:45.826Z,17.04
2023-03-22T01:40:13.971Z,17.05
2023-03-22T01:42:40.887Z,17.03
2023-03-22T01:45:27.593Z,17.01
2023-03-22T01:48:08.835Z,17.01
2023-03-22T01:50:38.811Z,17.03
2023-03-22T01:53:08.158Z,17.02
2023-03-22T01:55:35.926Z,17.02
2023-03-22T01:58:04.342Z,17.02
2023-03-22T02:00:31.909Z,17.02
2023-03-22T02:02:58.908Z,17.00
2023-03-22T02:05:26.412Z,17.00
2023-03-22T02:07:53.184Z,17.00
2023-03-22T02:10:23.505Z,17.00
2023-03-22T02:13:11.870Z,17.00
2023-03-22T02:16:00.017Z,16.99
2023-03-22T02:18:57.004Z,16.99
2023-03-22T02:21:29.118Z,17.00
2023-03-22T02:24:20.755Z,16.96
2023-03-22T02:26:49.957Z,16.99
2023-03-22T02:29:22.583Z,16.97
2023-03-22T02:32:13.761Z,16.95
2023-03-22T02:35:08.294Z,16.95
2023-03-22T02:38:02.719Z,16.95
2023-03-22T02:40:39.896Z,16.96
2023-03-22T02:43:09.704Z,16.97
2023-03-22T02:45:50.946Z,16.95
2023-03-22T02:48:57.906Z,16.94
2023-03-22T02:51:33.230Z,16.97
2023-03-22T02:54:28.741Z,16.95
2023-03-22T02:57:11.881Z,16.96
2023-03-22T02:59:41.578Z,16.96
2023-03-22T03:02:11.802Z,16.95
2023-03-22T03:04:44.478Z,16.93
2023-03-22T03:07:14.325Z,16.93
2023-03-22T03:09:43.218Z,16.93
2023-03-22T03:12:34.054Z,16.92
2023-03-22T03:15:00.582Z,16.93
2023-03-22T03:18:04.627Z,16.91
2023-03-22T03:20:31.145Z,16.92
2023-03-22T03:23:07.274Z,16.90
2023-03-22T03:26:16.060Z,16.88
2023-03-22T03:29:01.688Z,16.90
2023-03-22T03:31:31.406Z,16.89
2023-03-22T03:34:14.437Z,16.88
2023-03-22T03:36:46.921Z,16.89
2023-03-22T03:39:16.466Z,16.90
2023-03-22T03:41:46.331Z,16.89
2023-03-22T03:44:13.887Z,16.90
2023-03-22T03:46:41.788Z,16.90
2023-03-22T03:49:10.079Z,16.90
2023-03-22T03:51:47.304Z,16.89
2023-03-22T03:54:13.918Z,16.89
2023-03-22T03:56:40.668Z,16.89
2023-03-22T03:59:08.320Z,16.89
2023-03-22T04:01:35.779Z,16.89
2023-03-22T04:04:02.438Z,16.89
2023-03-22T04:06:28.978Z,16.89
2023-03-22T04:08:56.621Z,16.88
2023-03-22T04:11:23.238Z,16.88
2023-03-22T04:13:49.760Z,16.88
2023-03-22T04:16:16.325Z,16.88
2023-03-22T04:18:42.887Z,16.89
2023-03-22T04:21:12.075Z,16.88
2023-03-22T04:23:38.819Z,16.89
2023-03-22T04:26:05.913Z,16.89
2023-03-22T04:28:33.480Z,16.89
2023-03-22T04:31:00.023Z,16.87
2023-03-22T04:33:26.671Z,16.88
2023-03-22T04:35:56.765Z,16.89
2023-03-22T04:38:25.250Z,16.89
2023-03-22T04:40:51.802Z,16.90
2023-03-22T04:43:18.970Z,16.89
2023-03-22T04:45:46.175Z,16.89
2023-03-22T04:48:12.863Z,16.89
2023-03-22T04:50:40.338Z,16.88
2023-03-22T04:53:07.764Z,16.88
2023-03-22T04:55:34.274Z,16.88
2023-03-22T04:58:01.120Z,16.88
2023-03-22T05:00:30.178Z,16.87
2023-03-22T05:02:57.642Z,16.87
2023-03-22T05:05:24.387Z,16.87
2023-03-22T05:07:51.102Z,16.88
2023-03-22T05:10:17.609Z,16.88
2023-03-22T05:12:44.103Z,16.86
2023-03-22T05:15:10.839Z,16.86
2023-03-22T05:17:37.589Z,16.87
2023-03-22T05:20:09.451Z,16.85
2023-03-22T05:22:40.498Z,16.85
2023-03-22T05:25:08.510Z,16.85
2023-03-22T05:27:35.129Z,16.85
2023-03-22T05:30:02.218Z,16.85
2023-03-22T05:32:29.282Z,16.85
2023-03-22T05:34:56.316Z,16.84
2023-03-22T05:37:22.909Z,16.84
2023-03-22T05:39:49.480Z,16.83
2023-03-22T05:42:15.973Z,16.85
2023-03-22T05:44:42.607Z,16.84
2023-03-22T05:47:09.156Z,16.84
2023-03-22T05:49:35.709Z,16.85
2023-03-22T05:52:06.019Z,16.84
2023-03-22T05:54:32.826Z,16.86
2023-03-22T05:56:59.378Z,16.85
2023-03-22T05:59:26.089Z,16.85
2023-03-22T06:01:52.672Z,16.86
2023-03-22T06:04:20.963Z,16.85
2023-03-22T06:06:47.547Z,16.85
2023-03-22T06:09:17.567Z,16.86
2023-03-22T06:11:44.561Z,16.85
2023-03-22T06:14:11.170Z,16.86
2023-03-22T06:16:37.769Z,16.86
2023-03-22T06:19:04.367Z,16.87
2023-03-22T06:21:31.005Z,16.89
2023-03-22T06:23:57.598Z,16.90
2023-03-22T06:26:24.218Z,16.90
2023-03-22T06:28:50.898Z,16.91
2023-03-22T06:31:17.517Z,16.91
2023-03-22T06:33:45.450Z,16.92
2023-03-22T06:36:12.058Z,16.92
2023-03-22T06:38:38.672Z,16.93
2023-03-22T06:41:05.360Z,16.94
2023-03-22T06:43:31.886Z,16.95
2023-03-22T06:45:58.466Z,16.95
2023-03-22T06:48:25.177Z,16.95
2023-03-22T06:50:51.763Z,16.97
2023-03-22T06:53:18.302Z,16.98
2023-03-22T06:55:44.865Z,16.98
2023-03-22T06:58:11.641Z,16.98
2023-03-22T07:00:39.157Z,17.00
2023-03-22T07:03:05.902Z,16.99
2023-03-22T07:05:32.425Z,17.00
2023-03-22T07:07:58.960Z,16.99
2023-03-22T07:10:25.533Z,17.00
2023-03-22T07:12:52.099Z,16.98
2023-03-22T07:15:20.082Z,16.99
2023-03-22T07:17:46.578Z,16.99
2023-03-22T07:20:13.125Z,16.99
2023-03-22T07:22:39.659Z,16.99
2023-03-22T07:25:06.478Z,17.00
2023-03-22T07:27:33.025Z,17.01
2023-03-22T07:29:59.591Z,17.01
2023-03-22T07:32:26.223Z,17.01
2023-03-22T07:34:52.788Z,17.02
2023-03-22T07:37:19.376Z,17.03
2023-03-22T07:39:45.953Z,17.02
2023-03-22T07:42:12.519Z,17.03
2023-03-22T07:44:39.082Z,17.05
2023-03-22T07:47:05.864Z,17.06
2023-03-22T07:49:32.426Z,17.06
2023-03-22T07:51:59.418Z,17.07
2023-03-22T07:54:33.519Z,17.09
2023-03-22T07:57:01.575Z,17.09
2023-03-22T07:59:28.247Z,17.08
2023-03-22T08:01:54.967Z,17.08
2023-03-22T08:04:22.488Z,17.08
2023-03-22T08:06:49.780Z,17.08
2023-03-22T08:09:16.437Z,17.07
2023-03-22T08:11:43.014Z,17.08
2023-03-22T08:14:09.556Z,17.08
2023-03-22T08:16:36.148Z,17.09
2023-03-22T08:19:02.748Z,17.07
2023-03-22T08:21:29.367Z,17.07
2023-03-22T08:23:55.960Z,17.07
2023-03-22T08:26:23.280Z,17.07
2023-03-22T08:28:49.825Z,17.07
2023-03-22T08:31:17.412Z,17.07
2023-03-22T08:33:44.483Z,17.07
2023-03-22T08:36:14.481Z,17.07
2023-03-22T08:38:42.471Z,17.07
2023-03-22T08:41:09.216Z,17.07
2023-03-22T08:43:35.785Z,17.06
2023-03-22T08:46:02.552Z,17.06
2023-03-22T08:48:30.658Z,17.06
2023-03-22T08:50:58.353Z,17.06
2023-03-22T08:53:24.970Z,17.07
2023-03-22T08:56:10.333Z,17.06
2023-03-22T08:58:36.863Z,17.07
2023-03-22T09:01:03.463Z,17.06
2023-03-22T09:03:30.092Z,17.05
2023-03-22T09:05:56.665Z,17.04
2023-03-22T09:08:23.175Z,17.04
2023-03-22T09:10:51.947Z,17.03
2023-03-22T09:13:19.545Z,17.03
2023-03-22T09:15:46.547Z,17.02
2023-03-22T09:18:13.388Z,17.00
2023-03-22T09:20:40.624Z,16.99
2023-03-22T09:23:07.353Z,16.99
2023-03-22T09:25:33.918Z,16.96
2023-03-22T09:28:00.458Z,16.96
2023-03-22T09:30:27.263Z,16.96
2023-03-22T09:32:54.072Z,16.95
2023-03-22T09:35:20.777Z,16.95
2023-03-22T09:37:49.273Z,16.96
2023-03-22T09:40:17.656Z,16.97
2023-03-22T09:42:51.338Z,16.97
2023-03-22T09:45:30.008Z,16.97
2023-03-22T09:47:59.021Z,16.98
2023-03-22T09:50:31.135Z,16.98
2023-03-22T09:52:58.446Z,16.98
2023-03-22T09:55:42.855Z,16.97
2023-03-22T09:58:36.790Z,16.97
2023-03-22T10:01:12.021Z,16.99
2023-03-22T10:04:05.053Z,16.98
2023-03-22T10:06:32.330Z,16.99
2023-03-22T10:08:58.810Z,16.98
2023-03-22T10:11:31.671Z,16.98
2023-03-22T10:14:04.007Z,16.97
2023-03-22T10:16:34.848Z,16.99
2023-03-22T10:19:17.239Z,16.99
2023-03-22T10:21:46.610Z,17.00
2023-03-22T10:24:20.220Z,17.00
2023-03-22T10:26:47.733Z,16.99
2023-03-22T10:29:37.750Z,17.00
2023-03-22T10:32:15.232Z,16.99
2023-03-22T10:34:43.465Z,16.98
2023-03-22T10:37:16.557Z,16.98
2023-03-22T10:39:46.688Z,16.96
2023-03-22T10:42:16.526Z,16.98
2023-03-22T10:44:50.615Z,16.96
2023-03-22T10:47:24.400Z,16.95
2023-03-22T10:49:54.740Z,16.95
2023-03-22T10:52:30.581Z,16.98
2023-03-22T10:55:01.265Z,16.99
2023-03-22T10:57:29.651Z,16.99
2023-03-22T10:59:57.282Z,16.99
2023-03-22T11:02:32.715Z,16.99
2023-03-22T11:05:05.364Z,17.00
2023-03-22T11:07:43.469Z,17.00
2023-03-22T11:10:09.918Z,17.01
2023-03-22T11:12:40.827Z,17.01
2023-03-22T11:15:19.318Z,17.01
2023-03-22T11:17:45.853Z,17.02
2023-03-22T11:20:17.424Z,17.02
2023-03-22T11:22:47.355Z,17.05
2023-03-22T11:25:18.700Z,17.06
2023-03-22T11:28:19.260Z,17.06
2023-03-22T11:31:06.284Z,17.06
2023-03-22T11:33:33.522Z,17.09
2023-03-22T11:36:03.458Z,17.09
2023-03-22T11:38:30.037Z,17.09
2023-03-22T11:41:01.544Z,17.09
2023-03-22T11:43:39.185Z,17.09
2023-03-22T11:46:08.517Z,17.10
2023-03-22T11:48:36.827Z,17.10
2023-03-22T11:51:10.784Z,17.09
2023-03-22T11:53:40.460Z,17.09
2023-03-22T11:56:10.898Z,17.10
2023-03-22T11:58:37.403Z,17.10
2023-03-22T12:01:05.983Z,17.11
2023-03-22T12:03:43.289Z,17.10
2023-03-22T12:06:32.236Z,17.09
2023-03-22T12:09:04.627Z,17.11
2023-03-22T12:11:37.787Z,17.10
2023-03-22T12:14:16.255Z,17.10
2023-03-22T12:16:57.810Z,17.10
2023-03-22T12:19:33.200Z,17.12
2023-03-22T12:22:00.605Z,17.12
2023-03-22T12:24:30.950Z,17.11
2023-03-22T12:27:11.012Z,17.10
2023-03-22T12:29:44.090Z,17.10
2023-03-22T12:32:21.858Z,17.09
2023-03-22T12:34:54.939Z,17.11
2023-03-22T12:37:30.066Z,17.11
2023-03-22T12:40:19.098Z,17.11
2023-03-22T12:43:00.910Z,17.11
2023-03-22T12:45:32.083Z,17.11
2023-03-22T12:48:21.483Z,17.11
2023-03-22T12:50:56.570Z,17.12
2023-03-22T12:53:28.328Z,17.12
2023-03-22T12:55:56.144Z,17.12
2023-03-22T12:58:25.789Z,17.12
2023-03-22T13:01:22.067Z,17.10
2023-03-22T13:03:53.622Z,17.13
2023-03-22T13:06:41.830Z,17.11
2023-03-22T13:09:27.912Z,17.12
2023-03-22T13:12:19.372Z,17.11
2023-03-22T13:14:48.883Z,17.12
2023-03-22T13:17:40.744Z,17.10
2023-03-22T13:20:07.752Z,17.13
2023-03-22T13:22:46.227Z,17.12
2023-03-22T13:25:13.416Z,17.12
2023-03-22T13:27:45.959Z,17.12
2023-03-22T13:30:21.831Z,17.13
2023-03-22T13:32:54.628Z,17.15
2023-03-22T13:35:28.622Z,17.16
2023-03-22T13:38:03.100Z,17.15
2023-03-22T13:40:55.783Z,17.16
2023-03-22T13:43:31.115Z,17.16
2023-03-22T13:46:09.762Z,17.17
2023-03-22T13:48:49.014Z,17.16
2023-03-22T13:51:30.259Z,17.16
2023-03-22T13:54:18.803Z,17.15
2023-03-22T13:57:00.487Z,17.17
2023-03-22T13:59:27.584Z,17.18
2023-03-22T14:01:57.475Z,17.17
2023-03-22T14:04:34.928Z,17.16
2023-03-22T14:07:40.099Z,17.15
2023-03-22T14:10:17.776Z,17.21
2023-03-22T14:13:28.720Z,17.29
2023-03-22T14:16:21.883Z,17.41
2023-03-22T14:18:49.891Z,17.50
2023-03-22T14:21:21.558Z,17.59
